Airfield :
LOGIN :

Register | Disclaimer

   EN    FR    IT 

 










Legend :    VFR   Marginal VFR   IFR   Intensive IFR   Very Intensive IFR
Visi :
Ceiling :
>= 8 km
>= 3000ft
5 to 8 km
1000 to 3000 ft
1500m to 5 km
500 to 1000 ft
800 to 1500m
200 to 500 ft
< 800m
< 200 ft
Symbols :   Thunderstorms  Fog  Heavy snow  Heavy precipitations  Wind > 20 kt
SIGMETs :     Misc.  Thunderstorms  Icing  Turbulence  Mountain Waves  Volcanic Ashes







- Airport Elevation : 348 ft
- IATA code : STN
- Download approach charts


EGSS - London Stansted

CURRENT METAR :
  • 160720Z AUTO 22014KT 2900 -RA OVC004 08/07 Q1006 RERA

EXPIRED METARs :
  • 160650Z AUTO 22015KT 6000 -RA OVC004 08/07 Q1007 RERA
  • 160620Z AUTO 22013KT 2400 -RA OVC004 08/07 Q1007 RERA
  • 160550Z AUTO 22012KT 3600 HZ OVC006 08/07 Q1007
  • 160520Z AUTO 22015KT 9999 BKN011 OVC015 08/06 Q1008
  • 160450Z AUTO 22014KT 9999 OVC011 08/06 Q1008

TAF TAF EGSS
Valid from the 16 at 06:00 until the 17 at 12:00 UTC


160459Z 1606/1712 22010KT 9999 SCT020
TEMPO 1606/1613 7000 -RADZ BKN008
PROB30
TEMPO 1606/1613 22015G25KT 4000 RADZ BKN004
BECMG 1613/1616 28010KT
TEMPO 1613/1616 25015G25KT 6000 RA BKN010
PROB30
TEMPO 1613/1616 3000 +RA BKN006
BECMG 1618/1621 22008KT
BECMG 1700/1703 30012KT
PROB30
TEMPO 1700/1706 7000 SHRA BKN012
PROB40
TEMPO 1706/1710 32015G25KT 2000 SHRASN -SHSN BKN004
ATIS : +44 1279 669 325
No reported NOTAMs for that airfield.



MET'MAP, your aeronautical weather chart ! - Copyright ORBIFLY December 2007 - Disclaimer

ORBIFLY MET'MAP TEAM :

Programming & Development : Alexandra Zaïnal
Concept & Development : Baudouin d'Aumeries
Co-Development & Prog : Marc-Olivier Méhu
Technical & hardware support : Manuel Goepfert

Contact : metmap@orbifly.com




SOURCES & CREDITS :

   NOAA